Time;durP1;ratioP1;P1;durP2;ratioP2;P2;SDS_P1;SDS_P2;PMS_P1;PMS_P2;Temp;Humidity;BMP_temperature;BMP_pressure;BME280_temperature;BME280_humidity;BME280_pressure;Samples;Min_cycle;Max_cycle;Signal;HPM_P1;HPM_P2
2024/04/07 00:00:19;;;;;;;8.10;5.60;;;;;;;1.33;100.00;142598.34;106841;1275;25252;-62
2024/04/07 00:03:05;;;;;;;8.30;5.20;;;;;;;1.30;100.00;142591.63;106839;1275;22526;-67
2024/04/07 00:05:53;;;;;;;9.90;6.00;;;;;;;1.28;100.00;142586.41;106859;1275;22525;-65
2024/04/07 00:08:46;;;;;;;8.10;5.70;;;;;;;1.28;100.00;142585.16;106834;1275;22527;-69
2024/04/07 00:11:32;;;;;;;7.30;4.90;;;;;;;1.31;100.00;142591.89;106852;1275;22528;-64
2024/04/07 00:14:19;;;;;;;13.90;5.70;;;;;;;1.33;100.00;142599.09;106970;1275;25389;-67
2024/04/07 00:17:05;;;;;;;9.30;4.60;;;;;;;1.36;100.00;142605.55;106833;1275;22615;-64
2024/04/07 00:19:51;;;;;;;10.00;4.90;;;;;;;1.39;100.00;142611.78;106871;1275;22640;-66
2024/04/07 00:22:37;;;;;;;7.70;4.70;;;;;;;1.39;100.00;142611.78;106870;1259;22528;-65
2024/04/07 00:25:24;;;;;;;7.40;4.20;;;;;;;1.38;100.00;142610.55;106843;1275;22520;-68
2024/04/07 00:28:11;;;;;;;8.70;4.90;;;;;;;1.35;100.00;142603.06;106802;1275;22525;-67
2024/04/07 00:30:57;;;;;;;7.30;5.00;;;;;;;1.32;100.00;142594.61;106792;1275;24279;-67
2024/04/07 00:33:43;;;;;;;7.00;4.20;;;;;;;1.27;100.00;142583.66;107015;1275;22599;-60
2024/04/07 00:36:29;;;;;;;7.00;4.80;;;;;;;1.24;100.00;142577.20;106838;1275;24279;-64
2024/04/07 00:39:16;;;;;;;6.40;4.30;;;;;;;1.22;100.00;142570.22;106836;1275;22528;-66
2024/04/07 00:42:03;;;;;;;7.10;4.00;;;;;;;1.22;100.00;142570.22;106858;1275;22645;-66
2024/04/07 00:44:49;;;;;;;6.90;4.70;;;;;;;1.21;100.00;142569.48;106975;1266;22520;-69
2024/04/07 00:47:36;;;;;;;6.30;4.30;;;;;;;1.19;100.00;142563.00;106831;1275;25249;-69
2024/04/07 00:50:22;;;;;;;9.40;4.40;;;;;;;1.18;100.00;142561.78;106844;1275;24268;-64
2024/04/07 00:53:10;;;;;;;5.20;3.30;;;;;;;1.17;100.00;142559.78;106983;1274;22648;-64
2024/04/07 00:55:56;;;;;;;7.30;4.20;;;;;;;1.17;100.00;142558.77;107028;1274;22517;-67
2024/04/07 00:58:42;;;;;;;7.40;3.30;;;;;;;1.16;100.00;142555.80;107000;1274;25379;-63
2024/04/07 01:01:28;;;;;;;5.80;3.90;;;;;;;1.15;100.00;142553.08;106992;1274;22527;-65
2024/04/07 01:04:15;;;;;;;6.90;3.80;;;;;;;1.13;100.00;142549.56;107015;1274;24823;-68
2024/04/07 01:07:01;;;;;;;6.50;3.60;;;;;;;1.12;100.00;142546.09;107004;1274;22645;-65
2024/04/07 01:09:49;;;;;;;5.90;3.60;;;;;;;1.08;100.00;142538.88;107042;1274;25378;-70
2024/04/07 01:12:35;;;;;;;10.50;3.60;;;;;;;1.06;100.00;142534.64;106986;1274;25359;-62
2024/04/07 01:15:21;;;;;;;6.50;3.60;;;;;;;1.06;100.00;142533.41;107010;1274;22517;-65
2024/04/07 01:18:08;;;;;;;7.70;4.20;;;;;;;1.04;100.00;142529.41;107038;1274;24334;-65
2024/04/07 01:20:54;;;;;;;9.00;4.50;;;;;;;1.02;100.00;142522.97;107010;1257;25388;-69
2024/04/07 01:23:41;;;;;;;5.90;3.90;;;;;;;0.99;100.00;142515.97;106995;1274;24269;-66
2024/04/07 01:26:27;;;;;;;6.60;3.90;;;;;;;0.97;100.00;142510.27;106997;1269;22505;-67
2024/04/07 01:29:13;;;;;;;5.90;3.60;;;;;;;0.94;100.00;142503.05;106870;1274;22608;-62
2024/04/07 01:31:59;;;;;;;6.20;3.80;;;;;;;0.90;100.00;142494.09;106967;1269;25294;-68
2024/04/07 01:34:45;;;;;;;5.40;3.40;;;;;;;0.89;100.00;142490.63;107030;1259;22534;-63
2024/04/07 01:37:32;;;;;;;7.00;3.80;;;;;;;0.88;100.00;142489.13;106916;1275;25491;-64
2024/04/07 01:40:18;;;;;;;5.80;3.40;;;;;;;0.89;100.00;142490.11;106839;1275;24399;-68
2024/04/07 01:43:04;;;;;;;7.10;3.60;;;;;;;0.91;100.00;142494.83;106814;1275;22530;-68
2024/04/07 01:45:50;;;;;;;6.80;3.40;;;;;;;0.90;100.00;142494.34;106852;1275;25375;-65
2024/04/07 01:48:36;;;;;;;8.00;3.90;;;;;;;0.90;100.00;142494.09;106866;1275;22520;-67
2024/04/07 01:51:22;;;;;;;7.70;3.90;;;;;;;0.90;100.00;142492.86;106940;1275;22526;-68
2024/04/07 01:54:09;;;;;;;7.50;4.10;;;;;;;0.89;100.00;142490.09;106966;1274;22523;-65
2024/04/07 01:56:55;;;;;;;6.50;4.10;;;;;;;0.86;100.00;142483.88;107025;1274;23381;-70
2024/04/07 01:59:41;;;;;;;6.00;3.80;;;;;;;0.83;100.00;142476.17;106950;1269;24284;-65
2024/04/07 02:02:28;;;;;;;6.20;3.70;;;;;;;0.81;100.00;142472.19;107035;1269;24261;-61
2024/04/07 02:05:14;;;;;;;9.60;3.80;;;;;;;0.79;100.00;142466.47;107011;1274;22523;-66
2024/04/07 02:08:03;;;;;;;5.60;3.50;;;;;;;0.76;100.00;142460.25;106998;1274;24386;-64
2024/04/07 02:10:50;;;;;;;6.40;4.10;;;;;;;0.75;100.00;142456.28;107024;1274;24275;-62
2024/04/07 02:13:37;;;;;;;5.20;3.70;;;;;;;0.73;100.00;142451.05;107010;1274;25458;-65
2024/04/07 02:16:24;;;;;;;7.40;3.80;;;;;;;0.72;100.00;142450.06;107014;1257;22517;-60
2024/04/07 02:19:16;;;;;;;6.50;3.80;;;;;;;0.71;100.00;142446.08;107030;1274;22756;-64
2024/04/07 02:22:03;;;;;;;6.80;3.90;;;;;;;0.69;100.00;142443.08;106994;1274;24238;-66
2024/04/07 02:24:49;;;;;;;7.50;3.40;;;;;;;0.68;100.00;142438.63;106908;1274;169222;-67
2024/04/07 02:27:35;;;;;;;6.80;3.60;;;;;;;0.66;100.00;142434.64;107039;1274;23605;-63
2024/04/07 02:30:21;;;;;;;5.60;3.20;;;;;;;0.64;100.00;142429.67;107035;1274;25410;-65
2024/04/07 02:33:08;;;;;;;5.90;3.60;;;;;;;0.63;100.00;142430.16;106983;1274;24396;-66
2024/04/07 02:35:58;;;;;;;8.50;4.40;;;;;;;0.63;100.00;142429.91;107026;1274;25462;-69
